Historyczne dane pomiarowe

Dodano dane terminowe – wersja testowa.

Dane z okresu 1951-2019

Wersja bazy: 1.34 [2019-03-16, lista zmian], aktualizacja planowana na 2019-04-15

Dane meteo z obszaru Polski uzyskane na podstawie danych udostępnionych przez Instytut Meteorologii i Gospodarki Wodnej – Państwowy Instytut Badawczy.

 

Wybierz Datę:    

       

TemperaturaWilgotnośćWiatrCiśnienieOpadyŚniegCzas trwania zjawisk
 Stacja t tx tn tng RH VA  wxwx mslp ppp RRR   cm mm wxwxwxwxwxwxwx
1983-08-14 13.8 16.7 10.8 9.7 81.8- 7.3 7.0---- 0.0------------
1983-08-13 14.7 20.4 12.4 11.8 83.3- 8.0 4.3---- 10.5------------
1983-08-12 19.1 25.7 15.8 16.1 77.5- 7.7 1.7---- 2.7------------
1983-08-11 17.9 21.4 15.7 14.8 92.5- 8.0 1.3---- 5.0------------
1983-08-10 17.4 23.5 14.3 12.8 86.3- 8.0 1.7---- 3.0------------
1983-08-09 17.7 25.0 10.4 13.8 88.8- 8.0 1.7---- 19.7------------
1983-08-08 17.1 23.9 14.6 14.9 86.5- 7.7 2.7---- 11.2------------
1983-08-07 16.7 22.0 13.6 12.3 87.3- 8.0 2.0---- 12.0------------
1983-08-06 15.4 20.5 10.4 8.5 74.5- 7.3 4.3---- 0.2------------
1983-08-05 12.9 16.0 10.3 9.1 79.8- 7.7 4.7---- 0.0------------
1983-08-04 12.2 21.8 11.3 11.7 92.3- 8.0 3.3---- 7.0------------
1983-08-03 20.4 25.1 17.9 17.9 86.0- 8.0 4.3---- 18.6------------
1983-08-02 20.7 29.8 12.9 11.5 76.8- 5.3 3.7---- 1.2------------
1983-08-01 19.1 26.3 11.9 10.3 59.0- 2.7 7.0---- 0.0------------
1983-07-31 16.2 22.7 12.4 10.2 73.8- 4.7 2.0---- 0.0------------
1983-07-30 17.8 22.4 15.5 12.3 74.0- 7.3 2.0---- 0.0------------
1983-07-29 19.4 24.0 15.9 12.8 67.0- 7.7 3.7---- 0.9------------
1983-07-28 22.8 27.0 20.0 16.6 60.8- 7.7 3.7---- 0.0------------
1983-07-27 22.2 29.2 16.9 14.3 73.0- 4.0 2.7---- 0.0------------
1983-07-26 20.0 26.0 16.0 14.8 69.3- 7.7 2.7---- 0.0------------
1983-07-25 14.0 19.5 9.4 8.1 82.8- 8.0 1.3---- 4.2------------
1983-07-24 15.5 20.1 11.9 13.0 89.0- 6.0 1.0---- 5.7------------
1983-07-23 15.8 20.1 11.5 14.9 74.3- 5.7 2.3---- 2.3------------
1983-07-22 12.6 15.1 10.6 9.0 74.0- 8.0 3.7---- 1.0------------
1983-07-21 13.4 17.0 11.3 9.6 65.5- 7.0 4.3---- 0.0------------
1983-07-20 16.8 22.5 12.3 12.5 82.5- 7.3 6.0---- 1.2------------
1983-07-19 23.0 28.7 17.6 15.3 60.0- 7.7 3.7---- 28.9------------
1983-07-18 20.4 28.2 12.2 11.1 69.5- 5.3 2.7---- 0.0------------
1983-07-17 20.5 25.5 17.6 14.8 70.3- 7.7 2.0---- 0.0------------
1983-07-16 20.8 27.1 14.4 12.3 61.3- 7.0 3.3---- 0.0------------
1983-07-15 18.3 23.5 15.4 15.3 72.8- 5.3 2.7---- 0.0------------
1983-07-14 16.9 20.0 15.2 15.3 88.5- 8.0 2.7---- 31.9------------
1983-07-13 17.0 20.4 15.2 13.8 88.0- 7.7 3.3---- 34.4------------
1983-07-12 16.2 20.9 15.7 13.8 89.5- 7.7 2.0---- 20.7------------
1983-07-11 17.7 25.7 15.5 13.0 84.3- 8.0 2.3---- 12.7------------
1983-07-10 20.9 28.3 14.3 13.0 64.0- 6.0 2.0---- 0.1------------
1983-07-09 19.7 27.5 11.1 9.8 67.5- 7.3 0.7---- 0.0------------
1983-07-08 18.9 26.4 9.8 7.6 57.3- 2.7 1.7---- 0.0------------
1983-07-07 19.7 27.0 12.2 10.4 62.5- 3.0 1.7---- 0.0------------
1983-07-06 20.2 27.2 12.0 18.2 68.0- 2.7 2.0---- 0.0------------
1983-07-05 20.0 26.5 12.6 11.3 68.5- 5.3 1.7---- 0.0------------
1983-07-04 18.7 26.1 10.6 9.2 63.3- 6.0 0.7---- 0.0------------
1983-07-03 18.1 23.5 13.4 12.2 71.3- 7.7 0.7---- 0.0------------
1983-07-02 18.2 24.5 14.7 13.3 87.0- 8.0 1.3---- 3.6------------
1983-07-01 20.0 25.7 11.9 10.8 69.0- 7.0 5.0---- 0.0------------
1983-06-30 15.2 22.6 7.6 6.9 69.5- 4.0 4.0---- 0.0------------
1983-06-29 15.5 20.0 11.8 11.5 61.8- 7.3 2.3---- 0.0------------
1983-06-28 17.3 21.7 15.4 14.8 78.5- 8.0 4.0---- 0.6------------
1983-06-27 20.7 26.3 16.3 14.2 72.8- 7.7 5.3---- 5.0------------
1983-06-26 19.4 22.5 17.5 15.6 70.0- 8.0 2.0---- 6.8------------
1983-06-25 21.6 27.5 15.8 11.8 50.3- 7.7 3.3---- 0.0------------
1983-06-24 16.6 25.5 7.1 5.2 65.3- 2.7 3.0---- 0.0------------
1983-06-23 13.0 19.6 5.4 3.7 62.0- 2.7 3.3---- 0.0------------
1983-06-22 14.2 20.1 10.9 9.2 61.3- 2.7 5.0---- 0.0------------
1983-06-21 18.4 24.0 13.4 12.5 74.8- 4.7 1.3---- 0.0------------
1983-06-20 17.9 22.4 15.9 15.7 83.3- 7.7 0.7---- 8.5------------
1983-06-19 16.2 20.8 12.2 12.3 85.8- 8.0 2.0---- 5.5------------
1983-06-18 12.0 13.4 11.1 11.1 93.0- 8.0 2.0---- 24.7------------
1983-06-17 12.2 15.3 10.8 10.3 82.0- 8.0 2.7---- 7.6------------
1983-06-16 11.8 15.5 10.9 11.3 90.5- 8.0 3.3---- 1.3------------
678.5 ms

 

Źródłem pochodzenia danych jest Instytut Meteorologii i Gospodarki Wodnej – Państwowy Instytut Badawczy. Dane Instytutu Meteorologii i Gospodarki Wodnej – Państwowego Instytutu Badawczego zostały przetworzone.

Dane źródłowe można odnaleźć na stronie https://dane.imgw.pl